Time;durP1;ratioP1;P1;durP2;ratioP2;P2;SDS_P1;SDS_P2;PMS_P1;PMS_P2;Temp;Humidity;BMP_temperature;BMP_pressure;BME280_temperature;BME280_humidity;BME280_pressure;Samples;Min_cycle;Max_cycle;Signal;HPM_P1;HPM_P2
2023/06/07 00:01:55;;;;;;;5.18;2.72;;;;;;;16.41;nan;61171.00;4995340;28;20747;-57
2023/06/07 00:04:21;;;;;;;5.28;2.50;;;;;;;16.30;nan;61141.09;4995296;28;20191;-59
2023/06/07 00:06:47;;;;;;;3.78;2.63;;;;;;;16.64;nan;61340.84;4994866;28;20570;-59
2023/06/07 00:09:13;;;;;;;4.43;2.42;;;;;;;16.64;nan;61178.34;4995426;28;20180;-59
2023/06/07 00:11:38;;;;;;;4.07;2.58;;;;;;;16.61;nan;61268.34;4994728;28;20577;-58
2023/06/07 00:14:04;;;;;;;3.55;2.60;;;;;;;16.50;nan;61219.25;4994494;28;20217;-59
2023/06/07 00:16:30;;;;;;;5.03;2.90;;;;;;;16.14;nan;61153.41;4994927;28;20498;-57
2023/06/07 00:18:57;;;;;;;11.95;3.05;;;;;;;16.12;nan;61177.50;4994663;28;20179;-57
2023/06/07 00:21:23;;;;;;;5.40;2.85;;;;;;;16.42;nan;61151.47;4994021;28;20202;-57
2023/06/07 00:23:49;;;;;;;5.13;2.90;;;;;;;16.46;nan;61170.91;4993538;28;20589;-58
2023/06/07 00:26:15;;;;;;;4.43;2.75;;;;;;;16.12;nan;61053.81;4994475;28;20195;-59
2023/06/07 00:28:40;;;;;;;3.58;2.53;;;;;;;16.39;nan;61121.75;4994955;28;20172;-57
2023/06/07 00:31:06;;;;;;;5.40;2.85;;;;;;;16.39;nan;61095.97;4994759;28;20179;-57
2023/06/07 00:33:32;;;;;;;3.95;2.78;;;;;;;16.20;nan;61220.03;4994498;28;20189;-58
2023/06/07 00:35:58;;;;;;;3.70;2.45;;;;;;;16.27;nan;61067.56;4994353;28;20181;-57
2023/06/07 00:38:24;;;;;;;5.47;2.88;;;;;;;16.30;nan;61074.09;4994082;28;20641;-58
2023/06/07 00:40:50;;;;;;;4.15;2.75;;;;;;;16.06;nan;60959.44;4994409;28;20176;-57
2023/06/07 00:43:15;;;;;;;5.47;3.00;;;;;;;16.24;nan;60986.84;4994501;28;20620;-57
2023/06/07 00:45:41;;;;;;;4.43;2.78;;;;;;;16.27;nan;61028.91;4993116;28;20193;-59
2023/06/07 00:48:07;;;;;;;4.47;2.65;;;;;;;16.12;nan;61158.91;4994152;28;20574;-58
2023/06/07 00:50:33;;;;;;;4.65;3.05;;;;;;;16.29;nan;60940.94;4994303;28;20231;-57
2023/06/07 00:53:00;;;;;;;6.40;3.20;;;;;;;15.98;nan;60895.78;4993912;28;20181;-58
2023/06/07 00:55:26;;;;;;;3.67;2.55;;;;;;;13.21;nan;62072.16;4993809;28;20183;-58
2023/06/07 00:57:53;;;;;;;5.35;3.03;;;;;;;16.07;nan;61001.25;4994527;28;20248;-58
2023/06/07 01:00:20;;;;;;;4.47;2.72;;;;;;;16.01;nan;60783.22;4994043;28;20287;-58
2023/06/07 01:02:46;;;;;;;8.32;3.08;;;;;;;16.03;nan;60780.88;4993917;28;20185;-58
2023/06/07 01:05:14;;;;;;;5.47;2.97;;;;;;;15.85;nan;60787.00;4993750;28;20187;-59
2023/06/07 01:07:44;;;;;;;5.18;2.80;;;;;;;16.08;nan;60647.34;4993770;28;20157;-56
2023/06/07 01:10:09;;;;;;;7.95;3.10;;;;;;;16.14;nan;60498.91;4994139;28;20172;-57
2023/06/07 01:12:35;;;;;;;4.15;3.03;;;;;;;15.89;nan;60281.53;4993644;28;20223;-56
2023/06/07 01:15:02;;;;;;;4.68;3.10;;;;;;;15.80;nan;59943.94;4993498;28;20254;-58
2023/06/07 01:17:30;;;;;;;4.25;3.00;;;;;;;15.87;nan;59813.19;4993531;28;20605;-57
2023/06/07 01:19:57;;;;;;;3.65;2.60;;;;;;;15.88;nan;59739.06;4993300;28;20318;-58
2023/06/07 01:22:27;;;;;;;6.53;3.08;;;;;;;16.12;nan;59605.31;4993345;28;20191;-58
2023/06/07 01:24:56;;;;;;;4.22;2.97;;;;;;;16.12;nan;59388.94;4993834;28;20180;-58
2023/06/07 01:27:27;;;;;;;5.25;3.22;;;;;;;15.79;nan;58777.22;4993360;28;20176;-58
2023/06/07 01:29:57;;;;;;;6.03;3.00;;;;;;;15.96;nan;58495.97;4991741;28;20675;-58
2023/06/07 01:32:23;;;;;;;6.25;3.30;;;;;;;15.81;nan;58305.28;4993162;28;20227;-56
2023/06/07 01:34:50;;;;;;;3.22;2.58;;;;;;;15.93;nan;56696.94;4992446;28;20209;-58
2023/06/07 01:37:16;;;;;;;4.38;2.95;;;;;;;15.98;nan;55773.44;4992748;28;20258;-58
2023/06/07 01:39:42;;;;;;;4.57;3.10;;;;;;;15.64;nan;53107.03;4992925;28;20229;-60
2023/06/07 01:42:09;;;;;;;4.15;2.90;;;;;;;15.64;nan;50007.75;4992750;28;20530;-58
2023/06/07 01:44:37;;;;;;;4.97;3.13;;;;;;;15.66;nan;47276.78;4992649;28;20189;-59
2023/06/07 01:47:04;;;;;;;6.15;3.55;;;;;;;15.49;nan;44791.28;4992602;28;20181;-57
2023/06/07 01:49:30;;;;;;;5.43;2.92;;;;;;;15.93;nan;42965.13;4986314;28;20370;-58
2023/06/07 01:51:55;;;;;;;5.07;3.08;;;;;;;15.94;nan;42561.09;4992924;28;20763;-58
2023/06/07 01:54:21;;;;;;;4.35;2.90;;;;;;;15.67;nan;39168.22;4992636;28;20196;-57
2023/06/07 01:57:16;;;;;;;4.50;3.00;;;;;;;15.91;nan;36722.59;4992865;28;20264;-58
2023/06/07 02:00:07;;;;;;;5.85;3.80;;;;;;;15.89;nan;31814.31;4992584;28;20208;-59
2023/06/07 02:02:43;;;;;;;6.43;3.55;;;;;;;15.82;nan;27889.66;4992628;28;20203;-58
2023/06/07 02:05:17;;;;;;;6.70;3.30;;;;;;;15.82;nan;26910.72;4993008;28;20575;-57
2023/06/07 02:07:49;;;;;;;4.72;3.08;;;;;;;15.61;nan;25268.09;4992627;28;20176;-57
2023/06/07 02:10:19;;;;;;;5.43;3.08;;;;;;;15.61;nan;23638.03;4992470;28;20184;-57
2023/06/07 02:12:46;;;;;;;8.40;3.50;;;;;;;15.62;nan;21683.47;4992860;28;20339;-58
2023/06/07 02:15:12;;;;;;;7.60;3.50;;;;;;;15.53;nan;17122.53;4992711;28;20567;-57
2023/06/07 02:17:57;;;;;;;7.00;4.20;;;;;;;15.74;nan;15829.69;4992768;28;20179;-58
2023/06/07 02:20:26;;;;;;;6.90;3.78;;;;;;;15.91;nan;15835.91;4992318;28;20176;-57
2023/06/07 02:22:52;;;;;;;8.20;4.03;;;;;;;15.84;nan;13231.97;4992433;28;20188;-58
2023/06/07 02:25:17;;;;;;;5.97;3.60;;;;;;;15.62;nan;11600.63;4992400;28;20176;-58
2023/06/07 02:27:43;;;;;;;9.18;4.60;;;;;;;15.96;nan;10636.09;4992438;28;20643;-57
2023/06/07 02:30:08;;;;;;;8.20;4.75;;;;;;;16.00;nan;9013.34;4992501;28;20184;-57
2023/06/07 02:32:34;;;;;;;8.80;4.70;;;;;;;15.67;nan;6409.56;4992466;28;20656;-57
2023/06/07 02:35:00;;;;;;;9.15;4.70;;;;;;;15.63;nan;4139.81;4992313;28;20207;-58
2023/06/07 02:37:25;;;;;;;7.97;4.40;;;;;;;15.86;nan;3495.81;4992453;28;20715;-59
2023/06/07 02:39:50;;;;;;;12.18;5.30;;;;;;;15.97;nan;3821.69;4992255;28;20176;-59
2023/06/07 02:42:16;;;;;;;8.23;4.90;;;;;;;15.86;nan;1551.78;4992426;28;20169;-57
2023/06/07 02:44:41;;;;;;;10.05;5.50;;;;;;;15.86;nan;904.06;4992080;28;20211;-59
2023/06/07 02:47:07;;;;;;;7.28;4.78;;;;;;;15.80;nan;255.81;4996359;28;20648;-56
2023/06/07 02:49:32;;;;;;;10.38;5.15;;;;;;;15.87;nan;256.66;4996237;28;20208;-59
2023/06/07 02:51:57;;;;;;;9.00;4.70;;;;;;;15.74;nan;902.50;4996542;28;20196;-58
2023/06/07 02:54:23;;;;;;;10.18;5.40;;;;;;;15.68;nan;-69.28;4996477;28;20251;-57
2023/06/07 02:56:48;;;;;;;10.55;4.85;;;;;;;16.06;nan;582.78;4996383;28;20296;-58
2023/06/07 02:59:13;;;;;;;7.97;4.97;;;;;;;15.84;nan;1551.56;4996239;28;20639;-57
2023/06/07 03:01:39;;;;;;;9.55;5.13;;;;;;;15.92;nan;2200.56;4995895;28;20294;-59
2023/06/07 03:04:04;;;;;;;11.40;5.93;;;;;;;15.97;nan;3173.41;4996026;28;20696;-58
2023/06/07 03:06:30;;;;;;;12.15;5.30;;;;;;;16.05;nan;2526.59;4995915;28;20173;-59
2023/06/07 03:08:56;;;;;;;12.85;5.28;;;;;;;15.45;nan;3164.84;4995830;28;20183;-58
2023/06/07 03:11:22;;;;;;;13.40;5.28;;;;;;;15.88;nan;3496.16;4996192;28;20251;-58
2023/06/07 03:13:48;;;;;;;12.88;5.90;;;;;;;16.31;nan;5449.97;4996306;28;20199;-59
2023/06/07 03:16:13;;;;;;;11.00;5.85;;;;;;;16.44;nan;8050.19;4996460;28;20181;-59
2023/06/07 03:18:39;;;;;;;13.18;6.38;;;;;;;16.67;nan;11632.56;4995707;28;20173;-58
2023/06/07 03:21:04;;;;;;;13.10;6.53;;;;;;;17.09;nan;12947.56;4995942;28;20683;-59
2023/06/07 03:23:30;;;;;;;15.00;6.50;;;;;;;17.16;nan;15882.47;4995777;28;20184;-60
2023/06/07 03:25:58;;;;;;;12.75;6.40;;;;;;;17.54;nan;20466.44;4989066;28;20278;-58
2023/06/07 03:28:24;;;;;;;14.65;6.38;;;;;;;18.05;nan;29983.28;4995909;28;20664;-58
2023/06/07 03:30:50;;;;;;;15.13;7.28;;;;;;;18.70;nan;48214.88;4995367;28;20263;-57
2023/06/07 03:33:15;;;;;;;11.35;5.50;;;;;;;20.17;nan;57543.69;4995199;28;20188;-58
2023/06/07 03:35:41;;;;;;;13.55;5.88;;;;;;;20.76;nan;59961.41;4994130;28;20660;-60
2023/06/07 03:38:07;;;;;;;11.45;5.10;;;;;;;21.11;nan;60475.34;4990404;28;20640;-58
2023/06/07 03:40:32;;;;;;;13.50;5.85;;;;;;;21.25;nan;60709.19;4989115;28;20180;-60
2023/06/07 03:42:59;;;;;;;11.15;5.57;;;;;;;21.71;nan;61137.06;4995559;28;20184;-61
2023/06/07 03:45:24;;;;;;;10.02;5.45;;;;;;;22.11;nan;61145.06;4995435;28;20278;-56
2023/06/07 03:47:50;;;;;;;13.10;6.13;;;;;;;22.43;nan;61248.16;4995051;28;20208;-59
2023/06/07 03:50:15;;;;;;;13.25;6.03;;;;;;;22.32;nan;61282.66;4994823;28;20204;-58
2023/06/07 03:52:41;;;;;;;12.25;6.25;;;;;;;22.20;nan;61331.59;4994885;28;20177;-57
2023/06/07 03:55:07;;;;;;;10.65;5.35;;;;;;;22.06;nan;61357.47;4995257;28;20279;-59
2023/06/07 03:57:32;;;;;;;11.43;5.97;;;;;;;18.76;nan;62460.72;4995246;28;20256;-59
2023/06/07 03:59:57;;;;;;;12.35;5.35;;;;;;;22.43;nan;61371.09;4994771;28;20173;-58
2023/06/07 04:02:23;;;;;;;9.68;5.35;;;;;;;23.06;nan;61584.41;4995099;28;20188;-59
2023/06/07 04:04:49;;;;;;;12.02;5.25;;;;;;;23.39;nan;61683.75;4994864;28;20212;-59
2023/06/07 04:07:16;;;;;;;11.95;5.45;;;;;;;23.65;nan;61738.72;4994939;28;20239;-59
2023/06/07 04:09:41;;;;;;;11.85;5.63;;;;;;;24.90;nan;61967.66;4993322;28;20194;-60
2023/06/07 04:12:07;;;;;;;9.93;5.75;;;;;;;24.51;nan;62064.97;4994030;28;20263;-61
2023/06/07 04:14:33;;;;;;;9.82;5.60;;;;;;;24.90;nan;62140.19;4993762;28;20641;-58
2023/06/07 04:16:58;;;;;;;9.63;4.97;;;;;;;24.92;nan;62218.88;4994034;28;20173;-57
2023/06/07 04:19:23;;;;;;;10.95;5.28;;;;;;;24.97;nan;62172.25;4993438;28;20192;-57
2023/06/07 04:21:49;;;;;;;10.05;5.30;;;;;;;25.51;nan;62246.31;4993983;28;20646;-58
2023/06/07 04:24:15;;;;;;;10.98;5.38;;;;;;;26.18;nan;62355.66;4994179;28;20191;-58
2023/06/07 04:26:40;;;;;;;9.88;5.63;;;;;;;26.40;nan;62439.94;4994205;28;20308;-60
2023/06/07 04:29:07;;;;;;;7.57;4.90;;;;;;;27.14;nan;62419.56;4993867;28;20621;-61
2023/06/07 04:31:34;;;;;;;9.38;5.45;;;;;;;27.34;nan;62449.16;4992772;28;20180;-59
2023/06/07 04:34:01;;;;;;;11.50;5.43;;;;;;;27.80;nan;62588.41;4993519;28;20189;-59
2023/06/07 04:36:30;;;;;;;12.27;5.70;;;;;;;27.71;nan;62548.66;4994106;28;20548;-59
2023/06/07 04:38:56;;;;;;;10.27;5.63;;;;;;;27.68;nan;62551.06;4993947;28;20248;-59
2023/06/07 04:41:25;;;;;;;11.18;5.70;;;;;;;27.63;nan;62574.78;4993945;28;20260;-59
2023/06/07 04:43:51;;;;;;;10.43;5.32;;;;;;;27.27;nan;62493.66;4993938;28;20227;-58
2023/06/07 04:46:18;;;;;;;10.98;5.22;;;;;;;27.11;nan;62515.28;4985941;28;20279;-59
2023/06/07 04:48:43;;;;;;;11.27;5.32;;;;;;;27.08;nan;62525.00;4993750;28;20203;-59
2023/06/07 04:51:09;;;;;;;9.30;5.70;;;;;;;26.95;nan;62502.81;4993751;28;20554;-58
2023/06/07 04:53:36;;;;;;;8.10;4.90;;;;;;;26.55;nan;62399.41;4993483;28;20200;-57
2023/06/07 04:56:02;;;;;;;11.90;5.10;;;;;;;26.68;nan;62446.28;4993596;28;20263;-58
2023/06/07 04:58:27;;;;;;;7.10;4.80;;;;;;;25.68;nan;62414.38;4993210;28;20547;-58
2023/06/07 05:00:53;;;;;;;9.13;5.30;;;;;;;24.72;nan;62153.66;4993564;28;20220;-58
2023/06/07 05:03:24;;;;;;;8.27;4.93;;;;;;;24.37;nan;62093.47;4993268;28;20179;-57
2023/06/07 05:05:51;;;;;;;10.43;5.55;;;;;;;23.37;nan;61918.22;4991801;28;20180;-59
2023/06/07 05:08:17;;;;;;;9.43;5.63;;;;;;;22.16;nan;61792.94;4990176;28;20177;-59
2023/06/07 05:10:43;;;;;;;9.13;5.32;;;;;;;21.72;nan;61735.78;4992886;28;20165;-58
2023/06/07 05:13:08;;;;;;;9.98;5.60;;;;;;;21.76;nan;61789.72;4993110;28;20177;-60
2023/06/07 05:15:34;;;;;;;7.78;4.93;;;;;;;21.98;nan;61812.69;4992761;28;20177;-58
2023/06/07 05:18:01;;;;;;;8.43;5.05;;;;;;;22.05;nan;61908.56;4993088;28;20177;-60
2023/06/07 05:20:29;;;;;;;10.38;5.68;;;;;;;22.15;nan;61831.41;4993198;28;20662;-58
2023/06/07 05:22:54;;;;;;;10.00;5.30;;;;;;;22.14;nan;61959.84;4993177;28;20238;-59
2023/06/07 05:25:20;;;;;;;9.75;5.30;;;;;;;21.75;nan;61937.44;4993239;28;20633;-57
2023/06/07 05:27:48;;;;;;;10.38;6.07;;;;;;;21.77;nan;61817.47;4993014;28;20172;-58
2023/06/07 05:30:14;;;;;;;13.15;6.07;;;;;;;21.64;nan;61874.94;4992724;28;20188;-58
2023/06/07 05:32:40;;;;;;;12.63;5.65;;;;;;;22.00;nan;61845.63;4993105;28;20185;-57
2023/06/07 05:35:05;;;;;;;9.80;5.47;;;;;;;21.99;nan;61823.66;4992721;28;20683;-59
2023/06/07 05:37:31;;;;;;;8.57;5.18;;;;;;;20.87;nan;61833.31;4992045;28;20632;-58
2023/06/07 05:39:57;;;;;;;12.18;5.53;;;;;;;21.70;nan;61923.94;4992650;28;20296;-59
2023/06/07 05:42:23;;;;;;;9.50;5.32;;;;;;;21.55;nan;61745.66;4992559;28;20644;-58
2023/06/07 05:44:49;;;;;;;10.88;5.47;;;;;;;20.69;nan;61677.84;4992303;28;20180;-58
2023/06/07 05:47:16;;;;;;;8.85;5.10;;;;;;;21.20;nan;61773.53;4992787;28;20184;-60
2023/06/07 05:49:45;;;;;;;8.70;5.32;;;;;;;21.18;nan;61695.94;4992549;28;20556;-60
2023/06/07 05:52:10;;;;;;;8.95;5.00;;;;;;;18.80;nan;61528.72;4992875;28;20193;-58
2023/06/07 05:54:39;;;;;;;8.23;4.63;;;;;;;21.28;nan;61681.81;4992200;28;20193;-59
2023/06/07 05:57:05;;;;;;;7.70;4.57;;;;;;;21.32;nan;61857.91;4991534;28;20659;-59
2023/06/07 05:59:31;;;;;;;8.70;4.80;;;;;;;21.57;nan;61974.75;4992506;28;20557;-58
2023/06/07 06:01:57;;;;;;;8.70;4.72;;;;;;;21.60;nan;61915.16;4992709;28;20224;-59
2023/06/07 06:04:24;;;;;;;7.85;4.80;;;;;;;21.73;nan;61797.31;4992857;28;20157;-58
2023/06/07 06:06:50;;;;;;;9.18;4.90;;;;;;;21.86;nan;61842.72;4992184;28;20182;-59
2023/06/07 06:09:15;;;;;;;10.00;4.90;;;;;;;22.18;nan;61933.75;4991585;28;20193;-59
2023/06/07 06:11:41;;;;;;;7.88;4.55;;;;;;;21.37;nan;62019.00;4988939;28;20208;-58
2023/06/07 06:14:06;;;;;;;8.35;4.70;;;;;;;21.64;nan;61818.28;4992064;28;20197;-59
2023/06/07 06:16:31;;;;;;;9.23;5.20;;;;;;;21.32;nan;61759.13;4991736;28;20224;-58
2023/06/07 06:18:57;;;;;;;9.02;4.72;;;;;;;21.17;nan;61759.75;4992329;28;20173;-60
2023/06/07 06:21:22;;;;;;;8.63;4.82;;;;;;;21.35;nan;61762.56;4990416;28;20615;-60
2023/06/07 06:23:48;;;;;;;8.20;4.57;;;;;;;21.55;nan;61805.47;4990841;28;20191;-59
2023/06/07 06:26:13;;;;;;;8.95;5.00;;;;;;;21.53;nan;61844.81;4991893;28;20176;-58
2023/06/07 06:28:38;;;;;;;8.40;4.28;;;;;;;21.04;nan;61737.75;4991640;28;20175;-57
2023/06/07 06:31:05;;;;;;;8.10;4.95;;;;;;;20.57;nan;61641.47;4992422;28;20605;-57
2023/06/07 06:33:31;;;;;;;9.25;4.90;;;;;;;20.71;nan;61652.13;4992107;28;20590;-57
2023/06/07 06:35:57;;;;;;;9.70;5.55;;;;;;;13.87;nan;60987.88;4992055;28;20172;-57
2023/06/07 06:38:22;;;;;;;10.05;4.97;;;;;;;20.55;nan;61641.78;4992560;28;20165;-57
2023/06/07 06:40:47;;;;;;;9.77;5.20;;;;;;;21.17;nan;61731.75;4992212;28;20267;-59
2023/06/07 06:43:13;;;;;;;12.70;6.05;;;;;;;21.44;nan;61785.75;4992180;28;20169;-61
2023/06/07 06:45:41;;;;;;;10.73;5.47;;;;;;;21.40;nan;61694.88;4992677;28;20239;-59
2023/06/07 06:48:06;;;;;;;11.43;5.03;;;;;;;21.14;nan;61832.84;4992349;28;20218;-57
2023/06/07 06:50:32;;;;;;;10.20;4.88;;;;;;;21.45;nan;61799.91;4992337;28;20185;-58
2023/06/07 06:52:57;;;;;;;7.05;4.72;;;;;;;20.73;nan;61814.81;4992033;28;20292;-60
2023/06/07 06:55:23;;;;;;;6.93;4.78;;;;;;;21.14;nan;61743.91;4991810;28;20258;-59
2023/06/07 06:57:48;;;;;;;11.88;5.28;;;;;;;21.41;nan;61815.59;4992148;28;20169;-58
2023/06/07 07:00:14;;;;;;;14.38;5.03;;;;;;;21.21;nan;61746.09;4992815;28;20738;-59
2023/06/07 07:02:39;;;;;;;9.57;5.10;;;;;;;21.45;nan;61981.88;4992503;28;20169;-58
2023/06/07 07:05:05;;;;;;;7.40;4.82;;;;;;;20.64;nan;61651.41;4992263;28;20176;-59
2023/06/07 07:07:31;;;;;;;9.48;4.75;;;;;;;21.25;nan;61774.03;4991941;28;20172;-59
2023/06/07 07:09:57;;;;;;;7.95;4.40;;;;;;;21.58;nan;62061.13;4992480;28;20187;-58
2023/06/07 07:12:23;;;;;;;8.00;4.57;;;;;;;21.34;nan;61766.03;4991804;28;20184;-58
2023/06/07 07:14:49;;;;;;;9.00;5.20;;;;;;;21.84;nan;61885.22;4992482;28;20207;-60
2023/06/07 07:17:14;;;;;;;10.63;5.28;;;;;;;22.03;nan;61971.34;4992051;28;20176;-58
2023/06/07 07:19:40;;;;;;;8.02;4.95;;;;;;;22.23;nan;62171.13;4992094;28;20191;-59
2023/06/07 07:22:06;;;;;;;7.95;4.78;;;;;;;21.94;nan;61974.69;4984571;28;20187;-59
2023/06/07 07:24:31;;;;;;;8.38;4.70;;;;;;;21.94;nan;61953.84;4992320;28;20263;-61
2023/06/07 07:26:56;;;;;;;10.43;4.47;;;;;;;21.71;nan;61828.28;4992377;28;20566;-58
2023/06/07 07:29:22;;;;;;;9.02;4.97;;;;;;;22.25;nan;61868.22;4991638;28;20272;-59
2023/06/07 07:31:47;;;;;;;8.10;5.13;;;;;;;22.12;nan;61960.75;4993381;28;20176;-59
2023/06/07 07:34:13;;;;;;;12.13;5.43;;;;;;;21.68;nan;61804.06;4995885;28;20346;-59
2023/06/07 07:36:38;;;;;;;9.02;4.70;;;;;;;22.06;nan;61875.84;4995743;28;20183;-59
2023/06/07 07:39:05;;;;;;;8.93;4.97;;;;;;;21.71;nan;61917.28;4995361;28;20176;-59
2023/06/07 07:41:33;;;;;;;8.48;4.93;;;;;;;21.94;nan;61831.00;4995129;28;20705;-59
2023/06/07 07:43:59;;;;;;;9.05;5.13;;;;;;;22.18;nan;62011.25;4994819;28;20196;-59
2023/06/07 07:46:25;;;;;;;7.28;4.32;;;;;;;22.44;nan;62010.16;4995017;28;20177;-59
2023/06/07 07:48:50;;;;;;;7.70;4.82;;;;;;;22.15;nan;61860.03;4995341;28;20204;-59
2023/06/07 07:51:15;;;;;;;8.07;5.03;;;;;;;22.06;nan;61977.34;4995402;28;20169;-59
2023/06/07 07:53:45;;;;;;;8.02;4.93;;;;;;;21.70;nan;61941.56;4994872;28;20200;-57
2023/06/07 07:56:10;;;;;;;6.78;4.78;;;;;;;22.85;nan;62050.50;4995363;28;20187;-59
2023/06/07 07:58:36;;;;;;;8.77;4.47;;;;;;;23.28;nan;62151.63;4995008;28;20624;-59
2023/06/07 08:01:02;;;;;;;8.05;4.53;;;;;;;23.58;nan;62085.59;4994842;28;20228;-60
2023/06/07 08:03:28;;;;;;;7.97;5.05;;;;;;;23.28;nan;62031.69;4995063;28;20169;-60
2023/06/07 08:05:54;;;;;;;8.68;5.13;;;;;;;22.86;nan;62073.06;4995022;28;20173;-61
2023/06/07 08:08:20;;;;;;;8.57;5.35;;;;;;;22.93;nan;62012.72;4994919;28;20611;-59
2023/06/07 08:10:46;;;;;;;9.80;5.13;;;;;;;22.79;nan;61968.72;4994791;28;20235;-57
2023/06/07 08:13:12;;;;;;;8.70;5.13;;;;;;;22.09;nan;61944.34;4994524;28;20177;-59
2023/06/07 08:15:38;;;;;;;7.93;4.85;;;;;;;22.31;nan;62000.59;4995341;28;20222;-59
2023/06/07 08:18:04;;;;;;;8.27;4.55;;;;;;;22.80;nan;61959.41;4994967;28;20181;-57
2023/06/07 08:20:30;;;;;;;8.43;5.13;;;;;;;23.60;nan;62088.44;4994617;28;20180;-60
2023/06/07 08:22:55;;;;;;;10.15;5.00;;;;;;;24.13;nan;62398.34;4994822;28;20190;-58
2023/06/07 08:25:21;;;;;;;7.57;4.78;;;;;;;24.12;nan;62112.56;4994903;28;20181;-60
2023/06/07 08:27:46;;;;;;;7.53;4.28;;;;;;;23.01;nan;61985.34;4994404;28;20561;-59
2023/06/07 08:30:12;;;;;;;6.15;3.92;;;;;;;22.70;nan;62278.34;4994285;28;20188;-58
2023/06/07 08:32:38;;;;;;;6.65;4.25;;;;;;;22.95;nan;62076.97;4994277;28;20667;-60
2023/06/07 08:35:05;;;;;;;6.70;4.40;;;;;;;23.56;nan;62083.31;4994366;28;20205;-57
2023/06/07 08:37:30;;;;;;;8.40;4.68;;;;;;;23.65;nan;62031.50;4994549;28;20177;-61
2023/06/07 08:39:56;;;;;;;7.65;4.50;;;;;;;23.68;nan;62170.59;4994098;28;20183;-59
2023/06/07 08:42:21;;;;;;;6.85;3.80;;;;;;;23.74;nan;62009.84;4993923;28;20177;-60
2023/06/07 08:44:47;;;;;;;7.57;4.35;;;;;;;24.09;nan;62117.53;4993254;28;20208;-59
2023/06/07 08:47:15;;;;;;;7.20;4.07;;;;;;;24.41;nan;62498.31;4994845;28;20180;-59
2023/06/07 08:49:43;;;;;;;7.00;4.03;;;;;;;24.57;nan;62202.47;4994381;28;20260;-59
2023/06/07 08:52:09;;;;;;;6.82;3.88;;;;;;;24.74;nan;62284.03;4993933;28;20264;-58
2023/06/07 08:54:40;;;;;;;5.70;3.85;;;;;;;23.88;nan;62098.28;4994009;28;20337;-59
2023/06/07 08:57:06;;;;;;;6.28;3.83;;;;;;;24.43;nan;62317.72;4993966;28;20179;-58
2023/06/07 08:59:32;;;;;;;6.50;3.90;;;;;;;24.96;nan;62280.38;4994608;28;20177;-59
2023/06/07 09:01:58;;;;;;;6.32;3.67;;;;;;;24.71;nan;62238.75;4994704;28;20246;-59
2023/06/07 09:04:24;;;;;;;5.35;3.60;;;;;;;24.06;nan;62186.66;4993885;28;20177;-57
2023/06/07 09:06:51;;;;;;;5.47;4.00;;;;;;;24.08;nan;62246.97;4994244;28;20187;-57
2023/06/07 09:09:16;;;;;;;5.05;3.65;;;;;;;24.46;nan;62318.50;4993500;28;20272;-58
2023/06/07 09:11:42;;;;;;;8.57;4.35;;;;;;;24.95;nan;62185.13;4994051;28;20260;-59
2023/06/07 09:14:09;;;;;;;6.10;4.40;;;;;;;21.73;nan;63847.47;4993302;28;20211;-59
2023/06/07 09:16:58;;;;;;;6.70;3.70;;;;;;;24.39;nan;62078.03;4993866;28;20169;-58
2023/06/07 09:19:44;;;;;;;5.97;4.07;;;;;;;24.54;nan;62264.38;4993481;28;20173;-59
2023/06/07 09:22:17;;;;;;;6.55;4.20;;;;;;;25.16;nan;62326.72;4991985;28;20192;-60
2023/06/07 09:24:43;;;;;;;5.65;3.92;;;;;;;19.62;nan;62734.66;4993717;28;20179;-58
2023/06/07 09:27:10;;;;;;;8.02;4.45;;;;;;;24.24;nan;62147.16;4993369;28;20177;-59
2023/06/07 09:29:41;;;;;;;7.03;3.88;;;;;;;23.62;nan;62084.94;4993540;28;20231;-58
2023/06/07 09:32:18;;;;;;;7.35;4.28;;;;;;;23.57;nan;62069.38;4993182;28;20235;-58
2023/06/07 09:34:43;;;;;;;6.45;4.10;;;;;;;23.96;nan;62131.47;4992386;28;20200;-60
2023/06/07 09:37:08;;;;;;;5.93;4.43;;;;;;;24.32;nan;62184.44;4992849;28;20176;-61
2023/06/07 09:39:37;;;;;;;6.10;3.90;;;;;;;24.56;nan;62172.59;4992662;28;20268;-59
2023/06/07 09:42:13;;;;;;;6.30;4.07;;;;;;;25.01;nan;62278.81;4992911;28;20595;-59
2023/06/07 09:44:38;;;;;;;5.35;3.83;;;;;;;25.19;nan;62309.25;4992766;28;20168;-58
2023/06/07 09:47:04;;;;;;;7.10;3.90;;;;;;;24.38;nan;62165.72;4991535;28;20196;-59
2023/06/07 09:49:34;;;;;;;5.38;3.78;;;;;;;24.56;nan;62175.75;4992582;28;20182;-59
2023/06/07 09:52:04;;;;;;;5.80;4.00;;;;;;;25.01;nan;62265.75;4992649;28;20184;-59
2023/06/07 09:54:37;;;;;;;5.10;3.65;;;;;;;24.75;nan;62227.66;4992632;28;20211;-59
2023/06/07 09:57:06;;;;;;;6.00;3.42;;;;;;;24.10;nan;62087.34;4992874;28;20247;-58
2023/06/07 09:59:32;;;;;;;5.07;3.70;;;;;;;24.03;nan;62194.28;4992542;28;20172;-59
2023/06/07 10:01:58;;;;;;;6.72;3.80;;;;;;;24.13;nan;62237.03;4992663;28;20224;-59
2023/06/07 10:04:23;;;;;;;6.45;4.25;;;;;;;24.57;nan;62168.50;4992703;28;20165;-59
2023/06/07 10:06:51;;;;;;;6.40;4.15;;;;;;;24.33;nan;62144.34;4992350;28;20663;-58
2023/06/07 10:09:17;;;;;;;7.05;3.75;;;;;;;24.14;nan;62404.69;4992384;28;20262;-58
2023/06/07 10:11:46;;;;;;;6.05;3.58;;;;;;;24.18;nan;62132.50;4991600;28;20653;-58
2023/06/07 10:14:20;;;;;;;5.72;3.60;;;;;;;24.53;nan;62177.00;4992432;28;20769;-59
2023/06/07 10:17:00;;;;;;;5.28;3.60;;;;;;;24.57;nan;62333.69;4992791;28;20169;-61
2023/06/07 10:19:35;;;;;;;5.88;3.53;;;;;;;25.01;nan;62262.56;4992642;28;20312;-58
2023/06/07 10:22:01;;;;;;;5.72;3.40;;;;;;;25.36;nan;62325.47;4992633;28;20188;-58
2023/06/07 10:24:39;;;;;;;4.65;3.35;;;;;;;25.12;nan;62285.56;4992141;28;20643;-58
2023/06/07 10:27:13;;;;;;;5.78;3.17;;;;;;;24.63;nan;62209.88;4992367;28;20168;-57
2023/06/07 10:29:41;;;;;;;4.78;3.30;;;;;;;24.72;nan;62321.50;4992339;28;20207;-58
2023/06/07 10:32:12;;;;;;;4.13;3.30;;;;;;;25.35;nan;62282.44;4992499;28;20180;-58
2023/06/07 10:34:38;;;;;;;4.82;3.10;;;;;;;25.65;nan;62575.28;4992567;28;20571;-59
2023/06/07 10:37:07;;;;;;;5.80;3.30;;;;;;;25.88;nan;62371.75;4992340;28;20247;-58
2023/06/07 10:39:34;;;;;;;7.00;3.60;;;;;;;25.61;nan;62332.50;4992696;28;20173;-59
2023/06/07 10:41:59;;;;;;;5.68;3.47;;;;;;;25.41;nan;62286.69;4992536;28;20275;-58
2023/06/07 10:44:25;;;;;;;7.53;3.35;;;;;;;25.59;nan;62320.31;4992360;28;20259;-58
2023/06/07 10:47:22;;;;;;;4.70;3.25;;;;;;;24.98;nan;62314.59;4992025;28;20175;-61
2023/06/07 10:49:48;;;;;;;5.07;3.50;;;;;;;24.68;nan;62319.56;4993006;28;20176;-60
2023/06/07 10:52:15;;;;;;;4.03;3.08;;;;;;;24.53;nan;62190.66;4992219;28;20177;-57
2023/06/07 10:54:42;;;;;;;5.03;3.45;;;;;;;24.49;nan;62374.22;4992034;28;20235;-60
2023/06/07 10:57:08;;;;;;;4.10;3.35;;;;;;;24.08;nan;62231.31;4992319;28;20217;-59
2023/06/07 10:59:37;;;;;;;4.97;3.20;;;;;;;24.84;nan;62397.94;4985635;28;20247;-58
2023/06/07 11:02:23;;;;;;;3.80;3.10;;;;;;;24.73;nan;62262.53;4985517;28;20601;-60
2023/06/07 11:04:48;;;;;;;6.03;3.60;;;;;;;24.87;nan;62306.72;4992720;28;20236;-59
2023/06/07 11:07:18;;;;;;;4.53;3.17;;;;;;;25.34;nan;62291.78;4994671;28;20169;-57
2023/06/07 11:09:43;;;;;;;6.05;3.28;;;;;;;24.94;nan;62283.31;4992126;28;20185;-58
2023/06/07 11:12:29;;;;;;;3.45;2.90;;;;;;;24.50;nan;62215.97;4993797;28;20188;-57
2023/06/07 11:15:30;;;;;;;3.83;3.05;;;;;;;25.16;nan;62337.19;4995879;28;20709;-59
2023/06/07 11:18:04;;;;;;;5.90;3.50;;;;;;;25.73;nan;62341.53;4989807;28;20200;-59
2023/06/07 11:20:39;;;;;;;5.72;3.10;;;;;;;26.25;nan;62454.81;4978548;28;20263;-59
2023/06/07 11:23:30;;;;;;;3.63;3.08;;;;;;;26.31;nan;62514.66;4992309;28;20191;-58
2023/06/07 11:26:05;;;;;;;4.63;3.35;;;;;;;26.50;nan;62472.31;4991919;28;20239;-58
2023/06/07 11:28:33;;;;;;;5.18;3.33;;;;;;;26.78;nan;62472.88;4995616;28;20257;-60
2023/06/07 11:31:00;;;;;;;4.47;3.10;;;;;;;26.59;nan;62480.00;4989050;28;20271;-60
2023/06/07 11:33:27;;;;;;;7.22;3.60;;;;;;;26.35;nan;62422.28;4980714;28;20634;-60
2023/06/07 11:35:54;;;;;;;5.00;3.00;;;;;;;26.00;nan;62591.81;4980921;28;20177;-60
2023/06/07 11:38:20;;;;;;;4.13;2.90;;;;;;;25.51;nan;62432.13;4988253;28;20566;-60
2023/06/07 11:40:46;;;;;;;4.13;2.70;;;;;;;25.48;nan;62286.81;4995413;28;20298;-61
2023/06/07 11:43:13;;;;;;;4.75;2.95;;;;;;;25.47;nan;62416.53;4995503;28;20638;-59
2023/06/07 11:45:43;;;;;;;4.00;2.83;;;;;;;25.47;nan;62422.34;4995196;28;20489;-61
2023/06/07 11:48:09;;;;;;;4.93;3.35;;;;;;;25.65;nan;62292.56;4995710;28;20322;-58
2023/06/07 11:50:39;;;;;;;4.20;2.80;;;;;;;25.17;nan;62175.59;4991898;28;20660;-58